createdAt,value
2017-01-19T00:00:38.587Z,1.93
2017-01-19T00:01:47.565Z,1.99
2017-01-19T00:02:56.548Z,2.06
2017-01-19T00:04:12.529Z,2.03
2017-01-19T00:05:32.326Z,2.05
2017-01-19T00:06:49.447Z,2.05
2017-01-19T00:08:07.047Z,2.03
2017-01-19T00:09:29.236Z,1.9
2017-01-19T00:10:46.317Z,2.02
2017-01-19T00:12:04.713Z,1.98
2017-01-19T00:13:23.521Z,1.98
2017-01-19T00:14:40.699Z,1.93
2017-01-19T00:15:58.950Z,1.9
2017-01-19T00:17:20.539Z,1.8
2017-01-19T00:18:34.776Z,1.84
2017-01-19T00:19:56.094Z,1.77
2017-01-19T00:21:15.827Z,1.69
2017-01-19T00:22:32.962Z,1.7
2017-01-19T00:23:50.724Z,1.83
2017-01-19T00:25:08.987Z,1.79
2017-01-19T00:26:28.748Z,1.81
2017-01-19T00:27:51.518Z,1.88
2017-01-19T00:29:11.628Z,1.86
2017-01-19T00:30:31.232Z,1.8
2017-01-19T00:31:52.227Z,1.93
2017-01-19T00:33:12.471Z,1.93
2017-01-19T00:34:32.179Z,1.95
2017-01-19T00:35:52.898Z,2
2017-01-19T00:37:08.824Z,2.02
2017-01-19T00:38:24.355Z,2.09
2017-01-19T00:39:43.943Z,2.1
2017-01-19T00:41:03.021Z,2.06
2017-01-19T00:42:24.391Z,2.1
2017-01-19T00:43:49.185Z,1.98
2017-01-19T00:45:06.563Z,2.06
2017-01-19T00:46:25.767Z,2.05
2017-01-19T00:47:40.650Z,2.1
2017-01-19T00:48:49.635Z,2.02
2017-01-19T00:49:58.611Z,2.16
2017-01-19T00:51:08.332Z,2.09
2017-01-19T00:52:17.342Z,2.09
2017-01-19T00:53:26.520Z,1.93
2017-01-19T00:54:35.514Z,2.07
2017-01-19T00:55:44.488Z,1.99
2017-01-19T00:56:53.683Z,2
2017-01-19T00:58:02.664Z,2.02
2017-01-19T00:59:11.642Z,1.95
2017-01-19T01:00:20.623Z,1.95
2017-01-19T01:01:30.076Z,2.09
2017-01-19T01:02:39.065Z,1.95
2017-01-19T01:03:48.503Z,2.03
2017-01-19T01:04:57.905Z,1.95
2017-01-19T01:06:07.145Z,2.03
2017-01-19T01:07:16.127Z,2.03
2017-01-19T01:08:25.100Z,1.95
2017-01-19T01:09:34.081Z,2.07
2017-01-19T01:10:43.548Z,2.1
2017-01-19T01:11:52.530Z,2.07
2017-01-19T01:13:01.510Z,2.02
2017-01-19T01:14:10.591Z,2.05
2017-01-19T01:15:19.579Z,2.03
2017-01-19T01:16:28.570Z,2
2017-01-19T01:17:37.579Z,2
2017-01-19T01:18:48.205Z,2.02
2017-01-19T01:19:59.743Z,2.1
2017-01-19T01:21:09.450Z,2.07
2017-01-19T01:22:19.479Z,1.98
2017-01-19T01:23:28.659Z,1.93
2017-01-19T01:24:37.749Z,1.98
2017-01-19T01:25:47.514Z,2.03
2017-01-19T01:26:56.807Z,2.03
2017-01-19T01:28:06.477Z,1.95
2017-01-19T01:29:17.639Z,1.98
2017-01-19T01:30:28.615Z,1.93
2017-01-19T01:31:37.596Z,1.86
2017-01-19T01:32:46.862Z,1.87
2017-01-19T01:33:56.206Z,1.91
2017-01-19T01:35:05.184Z,1.98
2017-01-19T01:36:15.291Z,2
2017-01-19T01:37:24.555Z,2.07
2017-01-19T01:38:33.842Z,2
2017-01-19T01:39:42.848Z,2.02
2017-01-19T01:40:52.053Z,2.03
2017-01-19T01:42:01.469Z,2.1
2017-01-19T01:43:12.394Z,1.95
2017-01-19T01:44:22.393Z,2.03
2017-01-19T01:45:32.483Z,1.99
2017-01-19T01:46:41.466Z,2.09
2017-01-19T01:47:50.444Z,2.06
2017-01-19T01:48:59.429Z,1.95
2017-01-19T01:50:09.550Z,2.06
2017-01-19T01:51:19.929Z,2.03
2017-01-19T01:52:29.635Z,2.05
2017-01-19T01:53:38.620Z,2.05
2017-01-19T01:54:47.603Z,1.98
2017-01-19T01:55:58.216Z,1.95
2017-01-19T01:57:07.197Z,2.03
2017-01-19T01:58:17.263Z,1.98
2017-01-19T01:59:26.244Z,1.99
2017-01-19T02:00:35.220Z,1.98
2017-01-19T02:01:44.204Z,1.88
2017-01-19T02:02:54.197Z,1.88
2017-01-19T02:04:03.531Z,1.87
2017-01-19T02:05:13.159Z,1.83
2017-01-19T02:06:22.732Z,1.83
2017-01-19T02:07:31.851Z,1.87
2017-01-19T02:08:40.867Z,1.84
2017-01-19T02:09:50.506Z,1.83
2017-01-19T02:10:59.512Z,1.84
2017-01-19T02:12:08.492Z,1.77
2017-01-19T02:13:17.472Z,1.7
2017-01-19T02:14:26.558Z,1.73
2017-01-19T02:15:36.170Z,1.72
2017-01-19T02:16:45.861Z,1.66
2017-01-19T02:17:55.530Z,1.65
2017-01-19T02:19:04.504Z,1.65
2017-01-19T02:20:13.499Z,1.65
2017-01-19T02:21:22.477Z,1.62
2017-01-19T02:22:31.451Z,1.66
2017-01-19T02:23:40.450Z,1.73
2017-01-19T02:24:50.221Z,1.66
2017-01-19T02:25:59.202Z,1.63
2017-01-19T02:27:08.185Z,1.73
2017-01-19T02:28:19.684Z,1.7
2017-01-19T02:29:31.005Z,1.65
2017-01-19T02:30:39.991Z,1.65
2017-01-19T02:31:49.698Z,1.55
2017-01-19T02:32:58.682Z,1.58
2017-01-19T02:34:08.026Z,1.69
2017-01-19T02:35:18.073Z,1.59
2017-01-19T02:36:27.182Z,1.66
2017-01-19T02:37:36.857Z,1.7
2017-01-19T02:38:45.838Z,1.72
2017-01-19T02:39:55.409Z,1.66
2017-01-19T02:41:05.622Z,1.73
2017-01-19T02:42:14.617Z,1.81
2017-01-19T02:43:23.599Z,1.84
2017-01-19T02:44:33.819Z,1.7
2017-01-19T02:45:43.093Z,1.68
2017-01-19T02:46:53.366Z,1.62
2017-01-19T02:48:03.077Z,1.73
2017-01-19T02:49:12.564Z,1.73
2017-01-19T02:50:21.841Z,1.88
2017-01-19T02:51:31.159Z,1.8
2017-01-19T02:52:40.143Z,1.9
2017-01-19T02:53:49.124Z,1.93
2017-01-19T02:54:58.827Z,1.95
2017-01-19T02:56:08.179Z,1.98
2017-01-19T02:57:19.414Z,1.99
2017-01-19T02:58:34.354Z,1.91
2017-01-19T02:59:49.408Z,1.95
2017-01-19T03:01:01.720Z,1.99
2017-01-19T03:02:12.058Z,1.99
2017-01-19T03:03:25.723Z,1.93
2017-01-19T03:04:39.814Z,1.91
2017-01-19T03:05:55.252Z,1.98
2017-01-19T03:07:09.936Z,2.06
2017-01-19T03:08:20.695Z,2.05
2017-01-19T03:09:34.879Z,2.12
2017-01-19T03:10:47.068Z,2.12
2017-01-19T03:12:02.102Z,2.2
2017-01-19T03:13:12.224Z,2.2
2017-01-19T03:14:25.115Z,2.2
2017-01-19T03:15:40.101Z,2.28
2017-01-19T03:16:50.833Z,2.23
2017-01-19T03:17:59.812Z,2.21
2017-01-19T03:19:08.793Z,2.16
2017-01-19T03:20:17.785Z,2.12
2017-01-19T03:21:26.756Z,2.06
2017-01-19T03:22:35.741Z,2.06
2017-01-19T03:23:44.720Z,1.95
2017-01-19T03:24:53.699Z,1.99
2017-01-19T03:26:02.685Z,1.98
2017-01-19T03:27:11.668Z,2.07
2017-01-19T03:28:20.669Z,1.95
2017-01-19T03:29:29.650Z,2.02
2017-01-19T03:30:38.635Z,1.86
2017-01-19T03:31:47.612Z,1.83
2017-01-19T03:32:56.593Z,1.83
2017-01-19T03:34:05.571Z,1.8
2017-01-19T03:35:14.548Z,1.77
2017-01-19T03:36:23.525Z,1.84
2017-01-19T03:37:32.530Z,1.86
2017-01-19T03:38:41.510Z,1.86
2017-01-19T03:39:50.488Z,1.81
2017-01-19T03:40:59.466Z,1.91
2017-01-19T03:42:08.450Z,1.98
2017-01-19T03:43:17.426Z,1.9
2017-01-19T03:44:26.455Z,1.84
2017-01-19T03:45:35.436Z,1.86
2017-01-19T03:46:44.416Z,1.84
2017-01-19T03:47:53.394Z,1.93
2017-01-19T03:49:02.370Z,1.84
2017-01-19T03:50:11.345Z,1.88
2017-01-19T03:51:20.328Z,1.99
2017-01-19T03:52:29.302Z,2
2017-01-19T03:53:38.293Z,1.91
2017-01-19T03:54:47.271Z,2
2017-01-19T03:55:56.250Z,1.95
2017-01-19T03:57:05.235Z,2
2017-01-19T03:58:14.211Z,1.83
2017-01-19T03:59:23.218Z,1.8
2017-01-19T04:00:32.217Z,1.98
2017-01-19T04:01:41.196Z,1.93
2017-01-19T04:02:50.178Z,1.98
2017-01-19T04:03:59.189Z,1.99
2017-01-19T04:05:08.165Z,1.95
2017-01-19T04:06:17.143Z,2.02
2017-01-19T04:07:26.127Z,1.98
2017-01-19T04:08:35.104Z,1.91
2017-01-19T04:09:44.089Z,2
2017-01-19T04:10:53.067Z,1.88
2017-01-19T04:12:02.046Z,2.02
2017-01-19T04:13:11.021Z,1.93
2017-01-19T04:14:19.999Z,1.93
2017-01-19T04:15:28.979Z,2
2017-01-19T04:16:37.968Z,2
2017-01-19T04:17:46.955Z,2
2017-01-19T04:18:55.928Z,1.88
2017-01-19T04:20:04.912Z,1.95
2017-01-19T04:21:13.895Z,1.93
2017-01-19T04:22:22.874Z,2
2017-01-19T04:23:31.854Z,1.86
2017-01-19T04:24:40.830Z,1.86
2017-01-19T04:25:49.810Z,1.77
2017-01-19T04:26:58.790Z,1.83
2017-01-19T04:28:07.775Z,1.69
2017-01-19T04:29:16.763Z,1.7
2017-01-19T04:30:25.736Z,1.76
2017-01-19T04:31:34.724Z,1.81
2017-01-19T04:32:43.713Z,1.81
2017-01-19T04:33:52.698Z,1.84
2017-01-19T04:35:01.705Z,1.87
2017-01-19T04:36:10.686Z,1.95
2017-01-19T04:37:19.664Z,2.05
2017-01-19T04:38:28.641Z,2.03
2017-01-19T04:39:37.624Z,2.03
2017-01-19T04:40:46.605Z,2.07
2017-01-19T04:41:55.613Z,1.95
2017-01-19T04:43:04.590Z,2
2017-01-19T04:44:13.569Z,1.98
2017-01-19T04:45:22.550Z,2.06
2017-01-19T04:46:31.527Z,1.99
2017-01-19T04:47:40.506Z,2.05
2017-01-19T04:48:49.492Z,1.88
2017-01-19T04:49:58.476Z,2.03
2017-01-19T04:51:07.454Z,2.05
2017-01-19T04:52:16.436Z,2.03
2017-01-19T04:53:25.422Z,2.05
2017-01-19T04:54:34.404Z,1.95
2017-01-19T04:55:43.383Z,2.02
2017-01-19T04:56:52.361Z,2.03
2017-01-19T04:58:01.342Z,1.87
2017-01-19T04:59:10.374Z,1.91
2017-01-19T05:00:19.353Z,1.93
2017-01-19T05:01:28.333Z,1.93
2017-01-19T05:02:37.316Z,1.98
2017-01-19T05:03:46.291Z,1.95
2017-01-19T05:04:55.269Z,1.84
2017-01-19T05:06:04.242Z,1.81
2017-01-19T05:07:13.222Z,1.8
2017-01-19T05:08:22.204Z,1.86
2017-01-19T05:09:31.186Z,1.83
2017-01-19T05:10:40.166Z,1.81
2017-01-19T05:11:49.145Z,1.86
2017-01-19T05:12:58.123Z,1.87
2017-01-19T05:14:07.102Z,1.87
2017-01-19T05:15:16.076Z,1.84
2017-01-19T05:16:25.059Z,1.88
2017-01-19T05:17:34.037Z,1.91
2017-01-19T05:18:43.039Z,1.95
2017-01-19T05:19:52.018Z,1.8
2017-01-19T05:21:00.996Z,1.86
2017-01-19T05:22:09.976Z,1.77
2017-01-19T05:23:18.973Z,1.73
2017-01-19T05:24:27.956Z,1.69
2017-01-19T05:25:37.354Z,1.7
2017-01-19T05:26:46.345Z,1.72
2017-01-19T05:27:55.322Z,1.72
2017-01-19T05:29:04.300Z,1.69
2017-01-19T05:30:13.276Z,1.63
2017-01-19T05:31:22.253Z,1.62
2017-01-19T05:32:31.232Z,1.5
2017-01-19T05:33:40.212Z,1.55
2017-01-19T05:34:49.204Z,1.47
2017-01-19T05:35:58.189Z,1.48
2017-01-19T05:37:07.162Z,1.52
2017-01-19T05:38:16.142Z,1.55
2017-01-19T05:39:25.119Z,1.58
2017-01-19T05:40:34.101Z,1.55
2017-01-19T05:41:43.080Z,1.54
2017-01-19T05:42:52.069Z,1.54
2017-01-19T05:44:01.047Z,1.66
2017-01-19T05:45:10.029Z,1.68
2017-01-19T05:46:19.009Z,1.72
2017-01-19T05:47:27.990Z,1.72
2017-01-19T05:48:36.994Z,1.76
2017-01-19T05:49:45.983Z,1.73
2017-01-19T05:50:54.960Z,1.76
2017-01-19T05:52:03.941Z,1.72
2017-01-19T05:53:12.918Z,1.83
2017-01-19T05:54:21.900Z,1.77
2017-01-19T05:55:30.882Z,1.81
2017-01-19T05:56:39.857Z,1.84
2017-01-19T05:57:48.830Z,1.84
2017-01-19T05:58:57.812Z,1.86
2017-01-19T06:00:06.791Z,1.84
2017-01-19T06:01:15.795Z,1.84
2017-01-19T06:02:24.772Z,1.81
2017-01-19T06:03:33.748Z,1.81
2017-01-19T06:04:42.734Z,1.84
2017-01-19T06:05:51.708Z,1.84
2017-01-19T06:07:00.687Z,1.81
2017-01-19T06:08:09.665Z,1.8
2017-01-19T06:09:18.636Z,1.8
2017-01-19T06:10:27.615Z,1.83
2017-01-19T06:11:36.593Z,1.84
2017-01-19T06:12:45.579Z,1.87
2017-01-19T06:13:54.559Z,1.88
2017-01-19T06:15:03.537Z,1.9
2017-01-19T06:16:12.519Z,1.8
2017-01-19T06:17:21.523Z,1.79
2017-01-19T06:18:30.504Z,1.8
2017-01-19T06:19:39.484Z,1.84
2017-01-19T06:20:48.471Z,1.86
2017-01-19T06:21:57.451Z,1.84
2017-01-19T06:23:06.435Z,1.84
2017-01-19T06:24:15.411Z,1.79
2017-01-19T06:25:24.394Z,1.81
2017-01-19T06:26:33.370Z,1.84
2017-01-19T06:27:42.354Z,1.83
2017-01-19T06:28:51.338Z,1.7
2017-01-19T06:30:00.314Z,1.6
2017-01-19T06:31:09.292Z,1.7
2017-01-19T06:32:18.268Z,1.63
2017-01-19T06:33:27.244Z,1.73
2017-01-19T06:34:36.225Z,1.55
2017-01-19T06:35:45.213Z,1.58
2017-01-19T06:36:54.198Z,1.48
2017-01-19T06:38:03.183Z,1.58
2017-01-19T06:39:12.163Z,1.55
2017-01-19T06:40:21.147Z,1.54
2017-01-19T06:41:30.125Z,1.51
2017-01-19T06:42:39.108Z,1.59
2017-01-19T06:43:48.087Z,1.55
2017-01-19T06:44:57.066Z,1.55
2017-01-19T06:46:06.050Z,1.51
2017-01-19T06:47:15.037Z,1.62
2017-01-19T06:48:24.017Z,1.55
2017-01-19T06:49:32.994Z,1.59
2017-01-19T06:50:41.977Z,1.58
2017-01-19T06:51:50.956Z,1.62
2017-01-19T06:52:59.938Z,1.68
2017-01-19T06:54:08.921Z,1.65
2017-01-19T06:55:17.900Z,1.62
2017-01-19T06:56:26.878Z,1.47
2017-01-19T06:57:35.855Z,1.55
2017-01-19T06:58:44.834Z,1.41
2017-01-19T06:59:53.816Z,1.6
2017-01-19T07:01:02.796Z,1.65
2017-01-19T07:02:11.775Z,1.63
2017-01-19T07:03:20.751Z,1.7
2017-01-19T07:04:29.739Z,1.79
2017-01-19T07:05:38.715Z,1.83
2017-01-19T07:06:47.697Z,1.84
2017-01-19T07:07:56.679Z,1.83
2017-01-19T07:09:05.659Z,1.81
2017-01-19T07:10:14.634Z,1.72
2017-01-19T07:11:23.615Z,1.72
2017-01-19T07:12:32.592Z,1.73
2017-01-19T07:13:41.568Z,1.77
2017-01-19T07:14:50.554Z,1.8
2017-01-19T07:15:59.536Z,1.84
2017-01-19T07:17:08.517Z,1.9
2017-01-19T07:18:17.496Z,1.9
2017-01-19T07:19:26.475Z,1.88
2017-01-19T07:20:35.452Z,1.98
2017-01-19T07:21:44.437Z,1.79
2017-01-19T07:22:53.420Z,1.72
2017-01-19T07:24:02.398Z,1.65
2017-01-19T07:25:11.372Z,1.55
2017-01-19T07:26:20.351Z,1.68
2017-01-19T07:27:29.327Z,1.6
2017-01-19T07:28:38.300Z,1.65
2017-01-19T07:29:47.281Z,1.69
2017-01-19T07:30:56.260Z,1.81
2017-01-19T07:32:05.237Z,1.76
2017-01-19T07:33:14.214Z,1.87
2017-01-19T07:34:23.211Z,1.83
2017-01-19T07:35:32.189Z,1.83
2017-01-19T07:36:41.170Z,1.84
2017-01-19T07:37:50.147Z,1.8
2017-01-19T07:38:59.125Z,1.9
2017-01-19T07:40:08.104Z,1.84
2017-01-19T07:41:17.082Z,1.83
2017-01-19T07:42:26.074Z,1.83
2017-01-19T07:43:35.058Z,1.83
2017-01-19T07:44:44.033Z,1.93
2017-01-19T07:45:53.014Z,1.9
2017-01-19T07:47:01.992Z,1.95
2017-01-19T07:48:10.967Z,1.95
2017-01-19T07:49:19.947Z,2.02
2017-01-19T07:50:28.930Z,2.06
2017-01-19T07:51:37.927Z,2.07
2017-01-19T07:52:46.912Z,2.06
2017-01-19T07:53:55.889Z,1.91
2017-01-19T07:55:04.876Z,1.98
2017-01-19T07:56:13.861Z,2.02
2017-01-19T07:57:22.839Z,2.02
2017-01-19T07:58:31.825Z,2.09
2017-01-19T07:59:40.812Z,2.06
2017-01-19T08:00:49.791Z,2.05
2017-01-19T08:01:58.771Z,2.07
2017-01-19T08:03:07.757Z,2.17
2017-01-19T08:04:16.757Z,2.05
2017-01-19T08:05:25.738Z,2.09
2017-01-19T08:06:34.714Z,1.99
2017-01-19T08:07:43.693Z,2.05
2017-01-19T08:08:52.677Z,2.1
2017-01-19T08:10:01.657Z,2.18
2017-01-19T08:11:10.645Z,2.21
2017-01-19T08:12:19.631Z,2.28
2017-01-19T08:13:28.620Z,2.27
2017-01-19T08:14:37.597Z,2.34
2017-01-19T08:15:46.574Z,2.39
2017-01-19T08:16:55.548Z,2.39
2017-01-19T08:18:04.530Z,2.39
2017-01-19T08:19:13.512Z,2.41
2017-01-19T08:20:22.497Z,2.52
2017-01-19T08:21:31.498Z,2.52
2017-01-19T08:22:40.475Z,2.53
2017-01-19T08:23:49.454Z,2.52
2017-01-19T08:24:58.440Z,2.61
2017-01-19T08:26:07.423Z,2.59
2017-01-19T08:27:16.401Z,2.63
2017-01-19T08:28:25.376Z,2.6
2017-01-19T08:29:34.354Z,2.52
2017-01-19T08:30:43.335Z,2.36
2017-01-19T08:31:52.314Z,2.41
2017-01-19T08:33:01.291Z,2.42
2017-01-19T08:34:10.274Z,2.43
2017-01-19T08:35:19.256Z,2.43
2017-01-19T08:36:28.237Z,2.42
2017-01-19T08:37:37.223Z,2.43
2017-01-19T08:38:46.205Z,2.41
2017-01-19T08:39:55.182Z,2.41
2017-01-19T08:41:04.169Z,2.46
2017-01-19T08:42:13.152Z,2.53
2017-01-19T08:43:22.141Z,2.59
2017-01-19T08:44:31.124Z,2.59
2017-01-19T08:45:40.104Z,2.56
2017-01-19T08:46:49.086Z,2.6
2017-01-19T08:47:58.065Z,2.59
2017-01-19T08:49:07.050Z,2.48
2017-01-19T08:50:16.031Z,2.52
2017-01-19T08:51:25.014Z,2.57
2017-01-19T08:52:33.992Z,2.71
2017-01-19T08:53:42.972Z,2.69
2017-01-19T08:54:51.957Z,2.75
2017-01-19T08:56:00.938Z,2.69
2017-01-19T08:57:09.919Z,2.63
2017-01-19T08:58:18.902Z,2.6
2017-01-19T08:59:27.880Z,2.69
2017-01-19T09:00:36.866Z,2.61
2017-01-19T09:01:45.842Z,2.61
2017-01-19T09:02:54.825Z,2.56
2017-01-19T09:04:03.809Z,2.53
2017-01-19T09:05:12.795Z,2.54
2017-01-19T09:06:21.779Z,2.59
2017-01-19T09:07:30.755Z,2.59
2017-01-19T09:08:39.736Z,2.54
2017-01-19T09:09:48.717Z,2.57
2017-01-19T09:10:57.706Z,2.71
2017-01-19T09:12:06.726Z,2.67
2017-01-19T09:13:15.802Z,2.72
2017-01-19T09:14:25.052Z,2.74
2017-01-19T09:15:34.309Z,2.69
2017-01-19T09:16:43.967Z,2.66
2017-01-19T09:17:53.706Z,2.59
2017-01-19T09:19:03.718Z,2.41
2017-01-19T09:20:13.449Z,2.35
2017-01-19T09:21:23.163Z,2.17
2017-01-19T09:22:33.039Z,2.2
2017-01-19T09:23:42.441Z,2.17
2017-01-19T09:24:51.829Z,2.2
2017-01-19T09:26:01.014Z,2.17
2017-01-19T09:27:10.092Z,2.18
2017-01-19T09:28:19.437Z,2.27
2017-01-19T09:29:28.696Z,2.36
2017-01-19T09:30:37.998Z,2.31
2017-01-19T09:31:47.333Z,2.34
2017-01-19T09:32:57.191Z,2.41
2017-01-19T09:34:06.431Z,2.48
2017-01-19T09:35:15.628Z,2.53
2017-01-19T09:36:25.285Z,2.41
2017-01-19T09:37:35.490Z,2.3
2017-01-19T09:38:45.242Z,2.3
2017-01-19T09:39:54.543Z,2.14
2017-01-19T09:41:04.586Z,2.16
2017-01-19T09:42:14.336Z,2.21
2017-01-19T09:43:23.697Z,2.16
2017-01-19T09:44:33.298Z,2.07
2017-01-19T09:45:42.465Z,2.02
2017-01-19T09:46:52.000Z,2.14
2017-01-19T09:48:01.473Z,2.23
2017-01-19T09:49:11.428Z,2.31
2017-01-19T09:50:20.548Z,2.23
2017-01-19T09:51:29.918Z,2.24
2017-01-19T09:52:39.477Z,2.27
2017-01-19T09:53:49.646Z,2.35
2017-01-19T09:54:58.893Z,2.34
2017-01-19T09:56:08.358Z,2.35
2017-01-19T09:57:17.884Z,2.24
2017-01-19T09:58:27.164Z,2.27
2017-01-19T09:59:36.538Z,2.18
2017-01-19T10:00:45.795Z,2.27
2017-01-19T10:01:55.075Z,2.34
2017-01-19T10:03:04.584Z,2.45
2017-01-19T10:04:13.941Z,2.46
2017-01-19T10:05:23.186Z,2.6
2017-01-19T10:06:32.299Z,2.59
2017-01-19T10:07:42.548Z,2.6
2017-01-19T10:08:51.999Z,2.53
2017-01-19T10:10:01.181Z,2.71
2017-01-19T10:11:10.730Z,2.79
2017-01-19T10:12:20.361Z,2.78
2017-01-19T10:13:30.921Z,2.79
2017-01-19T10:14:41.120Z,2.85
2017-01-19T10:15:50.603Z,2.81
2017-01-19T10:16:59.850Z,2.89
2017-01-19T10:18:09.226Z,2.9
2017-01-19T10:19:18.798Z,3.03
2017-01-19T10:20:28.029Z,2.84
2017-01-19T10:21:37.325Z,2.9
2017-01-19T10:22:46.725Z,3.11
2017-01-19T10:23:56.122Z,3.1
2017-01-19T10:25:05.280Z,3.11
2017-01-19T10:26:14.403Z,3.23
2017-01-19T10:27:24.463Z,3.17
2017-01-19T10:28:33.559Z,3.24
2017-01-19T10:29:42.654Z,3.2
2017-01-19T10:30:51.851Z,3.31
2017-01-19T10:32:01.122Z,3.15
2017-01-19T10:33:11.018Z,3.31
2017-01-19T10:34:20.266Z,3.35
2017-01-19T10:35:29.391Z,3.28
2017-01-19T10:36:38.713Z,3.24
2017-01-19T10:37:47.867Z,3.31
2017-01-19T10:38:57.953Z,3.29
2017-01-19T10:40:07.061Z,3.28
2017-01-19T10:41:16.191Z,3.35
2017-01-19T10:42:25.306Z,3.32
2017-01-19T10:43:35.694Z,3.28
2017-01-19T10:44:44.927Z,3.4
2017-01-19T10:45:53.991Z,3.32
2017-01-19T10:47:03.144Z,3.39
2017-01-19T10:48:12.310Z,3.45
2017-01-19T10:49:21.448Z,3.48
2017-01-19T10:50:30.720Z,3.52
2017-01-19T10:51:39.978Z,3.55
2017-01-19T10:52:49.054Z,3.54
2017-01-19T10:53:58.099Z,3.61
2017-01-19T10:55:07.234Z,3.55
2017-01-19T10:56:16.453Z,3.6
2017-01-19T10:57:25.429Z,3.62
2017-01-19T10:58:34.410Z,3.78
2017-01-19T10:59:43.395Z,3.7
2017-01-19T11:00:52.381Z,3.83
2017-01-19T11:02:01.363Z,3.84
2017-01-19T11:03:10.863Z,3.79
2017-01-19T11:04:19.842Z,3.78
2017-01-19T11:05:29.419Z,3.69
2017-01-19T11:06:38.964Z,3.57
2017-01-19T11:07:48.416Z,3.45
2017-01-19T11:08:57.493Z,3.26
2017-01-19T11:10:06.572Z,3.17
2017-01-19T11:11:16.027Z,3.2
2017-01-19T11:12:25.325Z,3.26
2017-01-19T11:13:35.662Z,3.21
2017-01-19T11:14:44.643Z,3.31
2017-01-19T11:15:53.620Z,3.39
2017-01-19T11:17:02.598Z,3.35
2017-01-19T11:18:12.459Z,3.42
2017-01-19T11:19:21.438Z,3.61
2017-01-19T11:20:30.854Z,3.7
2017-01-19T11:21:39.837Z,3.73
2017-01-19T11:22:48.849Z,3.72
2017-01-19T11:24:00.500Z,3.72
2017-01-19T11:25:11.201Z,3.57
2017-01-19T11:26:21.808Z,3.58
2017-01-19T11:27:30.789Z,3.6
2017-01-19T11:28:39.769Z,3.7
2017-01-19T11:29:49.170Z,3.68
2017-01-19T11:30:58.561Z,3.65
2017-01-19T11:32:07.561Z,3.79
2017-01-19T11:33:17.186Z,3.83
2017-01-19T11:34:26.952Z,3.86
2017-01-19T11:35:36.117Z,3.79
2017-01-19T11:36:45.072Z,3.79
2017-01-19T11:37:54.126Z,3.7
2017-01-19T11:39:03.648Z,3.66
2017-01-19T11:40:12.908Z,3.66
2017-01-19T11:41:21.865Z,3.75
2017-01-19T11:42:30.817Z,3.8
2017-01-19T11:43:39.770Z,3.78
2017-01-19T11:44:48.728Z,3.75
2017-01-19T11:45:57.688Z,3.88
2017-01-19T11:47:06.646Z,3.78
2017-01-19T11:48:15.598Z,3.83
2017-01-19T11:49:24.554Z,3.79
2017-01-19T11:50:33.506Z,3.69
2017-01-19T11:51:42.553Z,3.75
2017-01-19T11:52:51.596Z,3.73
2017-01-19T11:54:00.644Z,3.75
2017-01-19T11:55:09.619Z,3.83
2017-01-19T11:56:18.573Z,3.78
2017-01-19T11:57:27.530Z,3.86
2017-01-19T11:58:36.479Z,3.9
2017-01-19T11:59:45.467Z,4.04
2017-01-19T12:00:54.433Z,3.91
2017-01-19T12:02:03.392Z,4.02
2017-01-19T12:03:12.349Z,4.02
2017-01-19T12:04:21.299Z,4.05
2017-01-19T12:05:30.257Z,3.98
2017-01-19T12:06:39.302Z,3.88
2017-01-19T12:07:48.261Z,3.9
2017-01-19T12:08:57.215Z,3.91
2017-01-19T12:10:06.168Z,3.84
2017-01-19T12:11:15.120Z,3.94
2017-01-19T12:12:24.071Z,3.98
2017-01-19T12:13:33.031Z,3.91
2017-01-19T12:14:41.986Z,4.09
2017-01-19T12:15:50.947Z,4.05
2017-01-19T12:16:59.902Z,4.06
2017-01-19T12:18:08.854Z,4.05
2017-01-19T12:19:17.808Z,4.04
2017-01-19T12:20:26.763Z,3.94
2017-01-19T12:21:35.718Z,3.9
2017-01-19T12:22:44.676Z,3.94
2017-01-19T12:23:53.727Z,3.96
2017-01-19T12:25:02.676Z,4.02
2017-01-19T12:26:11.634Z,4.12
2017-01-19T12:27:20.584Z,4.12
2017-01-19T12:28:29.531Z,4.14
2017-01-19T12:29:38.490Z,4.11
2017-01-19T12:30:47.440Z,4.12
2017-01-19T12:31:56.391Z,4.14
2017-01-19T12:33:05.342Z,4.12
2017-01-19T12:34:14.295Z,4.15
2017-01-19T12:35:23.248Z,4.04
2017-01-19T12:36:32.203Z,4.05
2017-01-19T12:37:41.152Z,4.05
2017-01-19T12:38:50.100Z,4.14
2017-01-19T12:39:59.053Z,4.18
2017-01-19T12:41:08.005Z,4.2
2017-01-19T12:42:16.965Z,4.2
2017-01-19T12:43:25.924Z,4.18
2017-01-19T12:44:34.879Z,4.29
2017-01-19T12:45:43.835Z,4.26
2017-01-19T12:46:52.787Z,4.2
2017-01-19T12:48:01.738Z,4.26
2017-01-19T12:49:10.697Z,4.26
2017-01-19T12:50:19.657Z,4.34
2017-01-19T12:51:28.633Z,4.3
2017-01-19T12:52:37.582Z,4.3
2017-01-19T12:53:46.542Z,4.42
2017-01-19T12:54:55.497Z,4.37
2017-01-19T12:56:04.456Z,4.33
2017-01-19T12:57:13.419Z,4.3
2017-01-19T12:58:22.373Z,4.45
2017-01-19T12:59:31.328Z,4.41
2017-01-19T13:00:40.278Z,4.37
2017-01-19T13:01:49.230Z,4.42
2017-01-19T13:02:58.190Z,4.42
2017-01-19T13:04:07.177Z,4.37
2017-01-19T13:05:16.133Z,4.41
2017-01-19T13:06:25.083Z,4.37
2017-01-19T13:07:34.041Z,4.4
2017-01-19T13:08:43.055Z,4.4
2017-01-19T13:09:52.424Z,4.37
2017-01-19T13:11:01.383Z,4.42
2017-01-19T13:12:10.339Z,4.37
2017-01-19T13:13:19.295Z,4.48
2017-01-19T13:14:28.247Z,4.36
2017-01-19T13:15:37.204Z,4.36
2017-01-19T13:16:46.157Z,4.54
2017-01-19T13:17:55.120Z,4.52
2017-01-19T13:19:04.074Z,4.37
2017-01-19T13:20:13.027Z,4.41
2017-01-19T13:21:21.979Z,4.5
2017-01-19T13:22:31.611Z,4.54
2017-01-19T13:23:40.570Z,4.51
2017-01-19T13:24:49.529Z,4.48
2017-01-19T13:25:58.936Z,4.58
2017-01-19T13:27:07.896Z,4.6
2017-01-19T13:28:18.945Z,4.45
2017-01-19T13:29:30.419Z,4.63
2017-01-19T13:30:40.834Z,4.54
2017-01-19T13:31:50.492Z,4.59
2017-01-19T13:33:01.387Z,4.55
2017-01-19T13:34:10.960Z,4.48
2017-01-19T13:35:20.247Z,4.36
2017-01-19T13:36:29.220Z,4.47
2017-01-19T13:37:38.651Z,4.51
2017-01-19T13:38:47.611Z,4.51
2017-01-19T13:39:56.559Z,4.33
2017-01-19T13:41:05.514Z,4.33
2017-01-19T13:42:14.468Z,4.36
2017-01-19T13:43:23.510Z,4.32
2017-01-19T13:44:32.471Z,4.18
2017-01-19T13:45:41.455Z,4.2
2017-01-19T13:46:50.871Z,4.14
2017-01-19T13:48:00.642Z,4.2
2017-01-19T13:49:13.552Z,4.26
2017-01-19T13:50:24.592Z,4.22
2017-01-19T13:51:33.542Z,4.14
2017-01-19T13:52:42.496Z,4.15
2017-01-19T13:53:51.547Z,4.18
2017-01-19T13:55:00.507Z,4.24
2017-01-19T13:56:09.469Z,4.18
2017-01-19T13:57:18.432Z,4.27
2017-01-19T13:58:27.383Z,4.3
2017-01-19T13:59:36.366Z,4.24
2017-01-19T14:00:45.405Z,4.16
2017-01-19T14:01:54.364Z,4.18
2017-01-19T14:03:03.313Z,4.24
2017-01-19T14:04:12.263Z,4.23
2017-01-19T14:05:21.223Z,4.29
2017-01-19T14:06:31.551Z,4.27
2017-01-19T14:07:40.836Z,4.3
2017-01-19T14:08:49.792Z,4.4
2017-01-19T14:09:58.747Z,4.4
2017-01-19T14:11:07.702Z,4.47
2017-01-19T14:12:16.655Z,4.44
2017-01-19T14:13:25.626Z,4.58
2017-01-19T14:14:34.669Z,4.52
2017-01-19T14:15:43.648Z,4.36
2017-01-19T14:16:52.693Z,4.36
2017-01-19T14:18:01.730Z,4.32
2017-01-19T14:19:10.692Z,4.4
2017-01-19T14:20:19.656Z,4.34
2017-01-19T14:21:28.612Z,4.34
2017-01-19T14:22:37.572Z,4.33
2017-01-19T14:23:46.535Z,4.2
2017-01-19T14:24:55.574Z,4.27
2017-01-19T14:26:04.530Z,4.18
2017-01-19T14:27:13.484Z,4.22
2017-01-19T14:28:22.436Z,4.22
2017-01-19T14:29:31.407Z,4.23
2017-01-19T14:30:40.360Z,4.2
2017-01-19T14:31:49.321Z,4.16
2017-01-19T14:32:58.279Z,4.09
2017-01-19T14:34:07.245Z,4
2017-01-19T14:35:16.200Z,3.88
2017-01-19T14:36:25.173Z,3.91
2017-01-19T14:37:34.134Z,3.87
2017-01-19T14:38:43.091Z,3.79
2017-01-19T14:39:52.050Z,3.72
2017-01-19T14:41:01.005Z,3.66
2017-01-19T14:42:09.968Z,3.57
2017-01-19T14:43:18.928Z,3.54
2017-01-19T14:44:27.941Z,3.51
2017-01-19T14:45:36.916Z,3.55
2017-01-19T14:46:45.875Z,3.57
2017-01-19T14:47:54.833Z,3.54
2017-01-19T14:49:03.789Z,3.61
2017-01-19T14:50:12.779Z,3.69
2017-01-19T14:51:21.768Z,3.69
2017-01-19T14:52:30.724Z,3.79
2017-01-19T14:53:39.673Z,3.87
2017-01-19T14:54:48.623Z,3.94
2017-01-19T14:55:57.582Z,3.94
2017-01-19T14:57:06.553Z,4.04
2017-01-19T14:58:15.509Z,4.06
2017-01-19T14:59:24.463Z,3.91
2017-01-19T15:00:33.510Z,3.93
2017-01-19T15:01:42.580Z,3.97
2017-01-19T15:02:51.557Z,3.93
2017-01-19T15:04:00.519Z,3.9
2017-01-19T15:05:09.475Z,3.96
2017-01-19T15:06:18.434Z,3.91
2017-01-19T15:07:27.390Z,3.97
2017-01-19T15:08:36.341Z,4.06
2017-01-19T15:09:45.295Z,4.09
2017-01-19T15:10:54.255Z,4.11
2017-01-19T15:12:03.210Z,4.16
2017-01-19T15:13:12.167Z,4.23
2017-01-19T15:14:21.236Z,4.26
2017-01-19T15:15:30.198Z,4.32
2017-01-19T15:16:39.158Z,4.29
2017-01-19T15:17:48.115Z,4.26
2017-01-19T15:18:58.784Z,4.34
2017-01-19T15:20:08.733Z,4.3
2017-01-19T15:21:17.692Z,4.15
2017-01-19T15:22:26.648Z,4.16
2017-01-19T15:23:35.686Z,4.12
2017-01-19T15:24:44.640Z,4.09
2017-01-19T15:25:53.603Z,4.22
2017-01-19T15:27:03.249Z,4.23
2017-01-19T15:28:12.290Z,4.27
2017-01-19T15:29:21.270Z,4.27
2017-01-19T15:30:30.227Z,4.18
2017-01-19T15:31:39.187Z,4.16
2017-01-19T15:32:48.142Z,4.2